sensor_id;sensor_type;location;lat;lon;timestamp;P1;P2;P0
60245;PMS5003;46107;53.356;-1.524;2023-04-15T00:01:14;22;16;
60245;PMS5003;46107;53.356;-1.524;2023-04-15T00:03:42;15;13;
60245;PMS5003;46107;53.356;-1.524;2023-04-15T00:06:10;17;15;
60245;PMS5003;46107;53.356;-1.524;2023-04-15T00:08:37;21;16;
60245;PMS5003;46107;53.356;-1.524;2023-04-15T00:11:05;16;16;
60245;PMS5003;46107;53.356;-1.524;2023-04-15T00:13:33;17;17;
60245;PMS5003;46107;53.356;-1.524;2023-04-15T00:16:01;17;14;
60245;PMS5003;46107;53.356;-1.524;2023-04-15T00:18:28;15;14;
60245;PMS5003;46107;53.356;-1.524;2023-04-15T00:20:56;13;13;
60245;PMS5003;46107;53.356;-1.524;2023-04-15T00:23:24;19;17;
60245;PMS5003;46107;53.356;-1.524;2023-04-15T00:25:52;19;16;
60245;PMS5003;46107;53.356;-1.524;2023-04-15T00:28:20;14;14;
60245;PMS5003;46107;53.356;-1.524;2023-04-15T00:30:48;16;16;
60245;PMS5003;46107;53.356;-1.524;2023-04-15T00:33:16;18;18;
60245;PMS5003;46107;53.356;-1.524;2023-04-15T00:35:44;20;18;
60245;PMS5003;46107;53.356;-1.524;2023-04-15T00:38:11;23;19;
60245;PMS5003;46107;53.356;-1.524;2023-04-15T00:40:39;24;19;
60245;PMS5003;46107;53.356;-1.524;2023-04-15T00:43:07;16;15;
60245;PMS5003;46107;53.356;-1.524;2023-04-15T00:45:35;17;16;
60245;PMS5003;46107;53.356;-1.524;2023-04-15T00:48:04;16;14;
60245;PMS5003;46107;53.356;-1.524;2023-04-15T00:50:32;15;15;
60245;PMS5003;46107;53.356;-1.524;2023-04-15T00:53:00;23;16;
60245;PMS5003;46107;53.356;-1.524;2023-04-15T00:55:28;18;14;
60245;PMS5003;46107;53.356;-1.524;2023-04-15T00:57:56;17;14;
60245;PMS5003;46107;53.356;-1.524;2023-04-15T01:00:24;16;14;
60245;PMS5003;46107;53.356;-1.524;2023-04-15T01:02:51;19;12;
60245;PMS5003;46107;53.356;-1.524;2023-04-15T01:05:19;16;16;
60245;PMS5003;46107;53.356;-1.524;2023-04-15T01:07:47;13;13;
60245;PMS5003;46107;53.356;-1.524;2023-04-15T01:10:15;17;14;
60245;PMS5003;46107;53.356;-1.524;2023-04-15T01:12:44;17;14;
60245;PMS5003;46107;53.356;-1.524;2023-04-15T01:15:12;16;13;
60245;PMS5003;46107;53.356;-1.524;2023-04-15T01:17:41;15;11;
60245;PMS5003;46107;53.356;-1.524;2023-04-15T01:20:08;16;13;
60245;PMS5003;46107;53.356;-1.524;2023-04-15T01:22:36;13;12;
60245;PMS5003;46107;53.356;-1.524;2023-04-15T01:25:05;16;16;
60245;PMS5003;46107;53.356;-1.524;2023-04-15T01:27:36;17;16;
60245;PMS5003;46107;53.356;-1.524;2023-04-15T01:30:05;15;13;
60245;PMS5003;46107;53.356;-1.524;2023-04-15T01:32:35;15;13;
60245;PMS5003;46107;53.356;-1.524;2023-04-15T01:35:02;19;19;
60245;PMS5003;46107;53.356;-1.524;2023-04-15T01:37:30;18;16;
60245;PMS5003;46107;53.356;-1.524;2023-04-15T01:39:58;22;17;
60245;PMS5003;46107;53.356;-1.524;2023-04-15T01:42:25;18;15;
60245;PMS5003;46107;53.356;-1.524;2023-04-15T01:44:53;20;17;
60245;PMS5003;46107;53.356;-1.524;2023-04-15T01:47:20;17;17;
60245;PMS5003;46107;53.356;-1.524;2023-04-15T01:49:48;24;19;
60245;PMS5003;46107;53.356;-1.524;2023-04-15T01:52:16;23;20;
60245;PMS5003;46107;53.356;-1.524;2023-04-15T01:54:44;19;17;
60245;PMS5003;46107;53.356;-1.524;2023-04-15T01:57:12;24;20;
60245;PMS5003;46107;53.356;-1.524;2023-04-15T01:59:39;25;20;
60245;PMS5003;46107;53.356;-1.524;2023-04-15T02:02:07;24;23;
60245;PMS5003;46107;53.356;-1.524;2023-04-15T02:04:35;21;19;
60245;PMS5003;46107;53.356;-1.524;2023-04-15T02:07:03;28;25;
60245;PMS5003;46107;53.356;-1.524;2023-04-15T02:09:31;24;20;
60245;PMS5003;46107;53.356;-1.524;2023-04-15T02:11:58;31;25;
60245;PMS5003;46107;53.356;-1.524;2023-04-15T02:14:25;23;23;
60245;PMS5003;46107;53.356;-1.524;2023-04-15T02:16:53;27;25;
60245;PMS5003;46107;53.356;-1.524;2023-04-15T02:19:20;27;23;
60245;PMS5003;46107;53.356;-1.524;2023-04-15T02:21:48;27;27;
60245;PMS5003;46107;53.356;-1.524;2023-04-15T02:24:15;25;22;
60245;PMS5003;46107;53.356;-1.524;2023-04-15T02:26:43;25;18;
60245;PMS5003;46107;53.356;-1.524;2023-04-15T02:29:10;27;23;
60245;PMS5003;46107;53.356;-1.524;2023-04-15T02:31:38;22;21;
60245;PMS5003;46107;53.356;-1.524;2023-04-15T02:34:06;28;25;
60245;PMS5003;46107;53.356;-1.524;2023-04-15T02:36:33;21;18;
60245;PMS5003;46107;53.356;-1.524;2023-04-15T02:39:01;24;22;
60245;PMS5003;46107;53.356;-1.524;2023-04-15T02:41:29;25;19;
60245;PMS5003;46107;53.356;-1.524;2023-04-15T02:43:56;27;21;
60245;PMS5003;46107;53.356;-1.524;2023-04-15T02:46:23;20;19;
60245;PMS5003;46107;53.356;-1.524;2023-04-15T02:48:52;23;18;
60245;PMS5003;46107;53.356;-1.524;2023-04-15T02:51:20;26;24;
60245;PMS5003;46107;53.356;-1.524;2023-04-15T02:53:48;27;23;
60245;PMS5003;46107;53.356;-1.524;2023-04-15T02:56:16;25;25;
60245;PMS5003;46107;53.356;-1.524;2023-04-15T02:58:44;27;21;
60245;PMS5003;46107;53.356;-1.524;2023-04-15T03:01:11;21;19;
60245;PMS5003;46107;53.356;-1.524;2023-04-15T03:03:38;21;20;
60245;PMS5003;46107;53.356;-1.524;2023-04-15T03:06:05;28;23;
60245;PMS5003;46107;53.356;-1.524;2023-04-15T03:08:33;30;27;
60245;PMS5003;46107;53.356;-1.524;2023-04-15T03:11:00;27;26;
60245;PMS5003;46107;53.356;-1.524;2023-04-15T03:13:27;33;26;
60245;PMS5003;46107;53.356;-1.524;2023-04-15T03:15:55;29;27;
60245;PMS5003;46107;53.356;-1.524;2023-04-15T03:18:22;38;29;
60245;PMS5003;46107;53.356;-1.524;2023-04-15T03:20:50;25;24;
60245;PMS5003;46107;53.356;-1.524;2023-04-15T03:23:17;33;28;
60245;PMS5003;46107;53.356;-1.524;2023-04-15T03:25:45;29;26;
60245;PMS5003;46107;53.356;-1.524;2023-04-15T03:28:13;24;22;
60245;PMS5003;46107;53.356;-1.524;2023-04-15T03:30:40;26;25;
60245;PMS5003;46107;53.356;-1.524;2023-04-15T03:33:08;29;27;
60245;PMS5003;46107;53.356;-1.524;2023-04-15T03:35:36;35;31;
60245;PMS5003;46107;53.356;-1.524;2023-04-15T03:38:04;30;26;
60245;PMS5003;46107;53.356;-1.524;2023-04-15T03:40:31;28;23;
60245;PMS5003;46107;53.356;-1.524;2023-04-15T03:42:58;30;26;
60245;PMS5003;46107;53.356;-1.524;2023-04-15T03:45:26;38;31;
60245;PMS5003;46107;53.356;-1.524;2023-04-15T03:47:54;29;24;
60245;PMS5003;46107;53.356;-1.524;2023-04-15T03:50:22;27;24;
60245;PMS5003;46107;53.356;-1.524;2023-04-15T03:52:49;29;24;
60245;PMS5003;46107;53.356;-1.524;2023-04-15T03:55:17;23;20;
60245;PMS5003;46107;53.356;-1.524;2023-04-15T03:57:45;29;26;
60245;PMS5003;46107;53.356;-1.524;2023-04-15T04:00:12;23;23;
60245;PMS5003;46107;53.356;-1.524;2023-04-15T04:02:40;18;16;
60245;PMS5003;46107;53.356;-1.524;2023-04-15T04:05:07;21;18;
60245;PMS5003;46107;53.356;-1.524;2023-04-15T04:07:35;21;15;
60245;PMS5003;46107;53.356;-1.524;2023-04-15T04:10:03;17;15;
60245;PMS5003;46107;53.356;-1.524;2023-04-15T04:12:31;17;16;
60245;PMS5003;46107;53.356;-1.524;2023-04-15T04:14:58;24;16;
60245;PMS5003;46107;53.356;-1.524;2023-04-15T04:17:25;18;18;
60245;PMS5003;46107;53.356;-1.524;2023-04-15T04:19:53;20;14;
60245;PMS5003;46107;53.356;-1.524;2023-04-15T04:22:21;22;18;
60245;PMS5003;46107;53.356;-1.524;2023-04-15T04:24:48;15;14;
60245;PMS5003;46107;53.356;-1.524;2023-04-15T04:27:16;20;18;
60245;PMS5003;46107;53.356;-1.524;2023-04-15T04:29:44;17;14;
60245;PMS5003;46107;53.356;-1.524;2023-04-15T04:32:11;18;17;
60245;PMS5003;46107;53.356;-1.524;2023-04-15T04:34:39;16;15;
60245;PMS5003;46107;53.356;-1.524;2023-04-15T04:37:06;17;17;
60245;PMS5003;46107;53.356;-1.524;2023-04-15T04:39:34;19;19;
60245;PMS5003;46107;53.356;-1.524;2023-04-15T04:42:01;20;17;
60245;PMS5003;46107;53.356;-1.524;2023-04-15T04:44:29;18;16;
60245;PMS5003;46107;53.356;-1.524;2023-04-15T04:46:57;15;15;
60245;PMS5003;46107;53.356;-1.524;2023-04-15T04:49:24;19;15;
60245;PMS5003;46107;53.356;-1.524;2023-04-15T04:51:52;20;17;
60245;PMS5003;46107;53.356;-1.524;2023-04-15T04:54:20;19;16;
60245;PMS5003;46107;53.356;-1.524;2023-04-15T04:56:48;19;17;
60245;PMS5003;46107;53.356;-1.524;2023-04-15T04:59:16;20;17;
60245;PMS5003;46107;53.356;-1.524;2023-04-15T05:01:43;23;20;
60245;PMS5003;46107;53.356;-1.524;2023-04-15T05:04:11;24;20;
60245;PMS5003;46107;53.356;-1.524;2023-04-15T05:06:38;21;18;
60245;PMS5003;46107;53.356;-1.524;2023-04-15T05:09:06;23;21;
60245;PMS5003;46107;53.356;-1.524;2023-04-15T05:11:34;21;19;
60245;PMS5003;46107;53.356;-1.524;2023-04-15T05:14:02;20;17;
60245;PMS5003;46107;53.356;-1.524;2023-04-15T05:16:29;26;22;
60245;PMS5003;46107;53.356;-1.524;2023-04-15T05:18:56;24;19;
60245;PMS5003;46107;53.356;-1.524;2023-04-15T05:21:24;22;20;
60245;PMS5003;46107;53.356;-1.524;2023-04-15T05:23:51;23;22;
60245;PMS5003;46107;53.356;-1.524;2023-04-15T05:26:18;26;23;
60245;PMS5003;46107;53.356;-1.524;2023-04-15T05:28:45;22;21;
60245;PMS5003;46107;53.356;-1.524;2023-04-15T05:31:13;21;19;
60245;PMS5003;46107;53.356;-1.524;2023-04-15T05:33:41;24;20;
60245;PMS5003;46107;53.356;-1.524;2023-04-15T05:36:08;20;18;
60245;PMS5003;46107;53.356;-1.524;2023-04-15T05:38:36;23;21;
60245;PMS5003;46107;53.356;-1.524;2023-04-15T05:41:03;25;24;
60245;PMS5003;46107;53.356;-1.524;2023-04-15T05:43:31;19;18;
60245;PMS5003;46107;53.356;-1.524;2023-04-15T05:45:58;21;19;
60245;PMS5003;46107;53.356;-1.524;2023-04-15T05:48:25;22;20;
60245;PMS5003;46107;53.356;-1.524;2023-04-15T05:50:54;23;20;
60245;PMS5003;46107;53.356;-1.524;2023-04-15T05:53:22;19;19;
60245;PMS5003;46107;53.356;-1.524;2023-04-15T05:55:50;23;21;
60245;PMS5003;46107;53.356;-1.524;2023-04-15T05:58:17;23;21;
60245;PMS5003;46107;53.356;-1.524;2023-04-15T06:00:45;24;22;
60245;PMS5003;46107;53.356;-1.524;2023-04-15T06:03:18;24;23;
60245;PMS5003;46107;53.356;-1.524;2023-04-15T06:05:46;23;21;
60245;PMS5003;46107;53.356;-1.524;2023-04-15T06:08:14;25;21;
60245;PMS5003;46107;53.356;-1.524;2023-04-15T06:10:41;26;21;
60245;PMS5003;46107;53.356;-1.524;2023-04-15T06:13:08;21;18;
60245;PMS5003;46107;53.356;-1.524;2023-04-15T06:15:36;21;21;
60245;PMS5003;46107;53.356;-1.524;2023-04-15T06:18:04;20;19;
60245;PMS5003;46107;53.356;-1.524;2023-04-15T06:20:32;24;21;
60245;PMS5003;46107;53.356;-1.524;2023-04-15T06:22:59;30;25;
60245;PMS5003;46107;53.356;-1.524;2023-04-15T06:25:27;25;20;
60245;PMS5003;46107;53.356;-1.524;2023-04-15T06:27:54;23;20;
60245;PMS5003;46107;53.356;-1.524;2023-04-15T06:30:22;26;24;
60245;PMS5003;46107;53.356;-1.524;2023-04-15T06:32:50;22;21;
60245;PMS5003;46107;53.356;-1.524;2023-04-15T06:35:17;25;20;
60245;PMS5003;46107;53.356;-1.524;2023-04-15T06:37:45;27;21;
60245;PMS5003;46107;53.356;-1.524;2023-04-15T06:40:12;24;19;
60245;PMS5003;46107;53.356;-1.524;2023-04-15T06:42:40;24;23;
60245;PMS5003;46107;53.356;-1.524;2023-04-15T06:45:08;23;22;
60245;PMS5003;46107;53.356;-1.524;2023-04-15T06:47:36;22;21;
60245;PMS5003;46107;53.356;-1.524;2023-04-15T06:50:04;21;20;
60245;PMS5003;46107;53.356;-1.524;2023-04-15T06:52:31;20;18;
60245;PMS5003;46107;53.356;-1.524;2023-04-15T06:55:00;22;20;
60245;PMS5003;46107;53.356;-1.524;2023-04-15T06:57:27;26;22;
60245;PMS5003;46107;53.356;-1.524;2023-04-15T06:59:55;22;19;
60245;PMS5003;46107;53.356;-1.524;2023-04-15T07:02:22;25;22;
60245;PMS5003;46107;53.356;-1.524;2023-04-15T07:04:50;23;20;
60245;PMS5003;46107;53.356;-1.524;2023-04-15T07:07:18;24;22;
60245;PMS5003;46107;53.356;-1.524;2023-04-15T07:09:46;25;21;
60245;PMS5003;46107;53.356;-1.524;2023-04-15T07:12:13;22;18;
60245;PMS5003;46107;53.356;-1.524;2023-04-15T07:14:40;26;21;
60245;PMS5003;46107;53.356;-1.524;2023-04-15T07:17:08;23;22;
60245;PMS5003;46107;53.356;-1.524;2023-04-15T07:19:35;26;22;
60245;PMS5003;46107;53.356;-1.524;2023-04-15T07:22:03;32;27;
60245;PMS5003;46107;53.356;-1.524;2023-04-15T07:24:30;29;21;
60245;PMS5003;46107;53.356;-1.524;2023-04-15T07:26:58;23;18;
60245;PMS5003;46107;53.356;-1.524;2023-04-15T07:29:25;28;24;
60245;PMS5003;46107;53.356;-1.524;2023-04-15T07:31:52;32;23;
60245;PMS5003;46107;53.356;-1.524;2023-04-15T07:34:20;27;27;
60245;PMS5003;46107;53.356;-1.524;2023-04-15T07:36:48;24;23;
60245;PMS5003;46107;53.356;-1.524;2023-04-15T07:39:16;23;23;
60245;PMS5003;46107;53.356;-1.524;2023-04-15T07:41:43;25;23;
60245;PMS5003;46107;53.356;-1.524;2023-04-15T07:44:11;22;20;
60245;PMS5003;46107;53.356;-1.524;2023-04-15T07:46:38;26;24;
60245;PMS5003;46107;53.356;-1.524;2023-04-15T07:49:06;27;23;
60245;PMS5003;46107;53.356;-1.524;2023-04-15T07:51:33;25;21;
60245;PMS5003;46107;53.356;-1.524;2023-04-15T07:54:01;21;19;
60245;PMS5003;46107;53.356;-1.524;2023-04-15T07:56:28;22;21;
60245;PMS5003;46107;53.356;-1.524;2023-04-15T07:58:56;20;20;
60245;PMS5003;46107;53.356;-1.524;2023-04-15T08:01:24;25;23;
60245;PMS5003;46107;53.356;-1.524;2023-04-15T08:03:51;25;21;
60245;PMS5003;46107;53.356;-1.524;2023-04-15T08:06:18;26;22;
60245;PMS5003;46107;53.356;-1.524;2023-04-15T08:08:46;16;16;
60245;PMS5003;46107;53.356;-1.524;2023-04-15T08:11:13;18;18;
60245;PMS5003;46107;53.356;-1.524;2023-04-15T08:13:41;20;17;
60245;PMS5003;46107;53.356;-1.524;2023-04-15T08:16:17;21;18;
60245;PMS5003;46107;53.356;-1.524;2023-04-15T08:18:46;18;16;
60245;PMS5003;46107;53.356;-1.524;2023-04-15T08:21:14;21;18;
60245;PMS5003;46107;53.356;-1.524;2023-04-15T08:23:42;20;20;
60245;PMS5003;46107;53.356;-1.524;2023-04-15T08:26:10;18;17;
60245;PMS5003;46107;53.356;-1.524;2023-04-15T08:28:39;20;19;
60245;PMS5003;46107;53.356;-1.524;2023-04-15T08:31:07;21;17;
60245;PMS5003;46107;53.356;-1.524;2023-04-15T08:33:36;21;19;
60245;PMS5003;46107;53.356;-1.524;2023-04-15T08:36:03;19;19;
60245;PMS5003;46107;53.356;-1.524;2023-04-15T08:38:32;28;28;
60245;PMS5003;46107;53.356;-1.524;2023-04-15T08:41:00;21;19;
60245;PMS5003;46107;53.356;-1.524;2023-04-15T08:43:33;16;15;
60245;PMS5003;46107;53.356;-1.524;2023-04-15T08:46:05;20;20;
60245;PMS5003;46107;53.356;-1.524;2023-04-15T08:48:34;21;20;
60245;PMS5003;46107;53.356;-1.524;2023-04-15T08:51:05;15;14;
60245;PMS5003;46107;53.356;-1.524;2023-04-15T08:53:33;19;19;
60245;PMS5003;46107;53.356;-1.524;2023-04-15T08:56:01;23;20;
60245;PMS5003;46107;53.356;-1.524;2023-04-15T08:58:33;17;17;
60245;PMS5003;46107;53.356;-1.524;2023-04-15T09:01:02;20;19;
60245;PMS5003;46107;53.356;-1.524;2023-04-15T09:03:30;19;18;
60245;PMS5003;46107;53.356;-1.524;2023-04-15T09:05:58;18;17;
60245;PMS5003;46107;53.356;-1.524;2023-04-15T09:08:26;26;23;
60245;PMS5003;46107;53.356;-1.524;2023-04-15T09:10:53;22;19;
60245;PMS5003;46107;53.356;-1.524;2023-04-15T09:13:21;19;18;
60245;PMS5003;46107;53.356;-1.524;2023-04-15T09:15:48;21;18;
60245;PMS5003;46107;53.356;-1.524;2023-04-15T09:18:26;24;22;
60245;PMS5003;46107;53.356;-1.524;2023-04-15T09:20:54;19;18;
60245;PMS5003;46107;53.356;-1.524;2023-04-15T09:23:22;21;19;
60245;PMS5003;46107;53.356;-1.524;2023-04-15T09:25:49;20;17;
60245;PMS5003;46107;53.356;-1.524;2023-04-15T09:28:23;20;18;
60245;PMS5003;46107;53.356;-1.524;2023-04-15T09:30:51;21;17;
60245;PMS5003;46107;53.356;-1.524;2023-04-15T09:33:23;18;16;
60245;PMS5003;46107;53.356;-1.524;2023-04-15T09:35:59;19;19;
60245;PMS5003;46107;53.356;-1.524;2023-04-15T09:38:28;16;13;
60245;PMS5003;46107;53.356;-1.524;2023-04-15T09:40:56;15;15;
60245;PMS5003;46107;53.356;-1.524;2023-04-15T09:43:36;16;15;
60245;PMS5003;46107;53.356;-1.524;2023-04-15T09:46:06;18;17;
60245;PMS5003;46107;53.356;-1.524;2023-04-15T09:48:33;13;11;
60245;PMS5003;46107;53.356;-1.524;2023-04-15T09:51:02;15;12;
60245;PMS5003;46107;53.356;-1.524;2023-04-15T09:53:29;15;13;
60245;PMS5003;46107;53.356;-1.524;2023-04-15T09:56:01;19;16;
60245;PMS5003;46107;53.356;-1.524;2023-04-15T09:58:29;17;14;
60245;PMS5003;46107;53.356;-1.524;2023-04-15T10:00:58;13;13;
60245;PMS5003;46107;53.356;-1.524;2023-04-15T10:03:26;14;14;
60245;PMS5003;46107;53.356;-1.524;2023-04-15T10:05:55;13;13;
60245;PMS5003;46107;53.356;-1.524;2023-04-15T10:08:25;13;13;
60245;PMS5003;46107;53.356;-1.524;2023-04-15T10:10:54;14;14;
60245;PMS5003;46107;53.356;-1.524;2023-04-15T10:13:23;20;17;
60245;PMS5003;46107;53.356;-1.524;2023-04-15T10:15:55;18;16;
60245;PMS5003;46107;53.356;-1.524;2023-04-15T10:18:25;18;18;
60245;PMS5003;46107;53.356;-1.524;2023-04-15T10:20:53;16;16;
60245;PMS5003;46107;53.356;-1.524;2023-04-15T10:23:21;15;15;
60245;PMS5003;46107;53.356;-1.524;2023-04-15T10:25:49;16;16;
60245;PMS5003;46107;53.356;-1.524;2023-04-15T10:28:19;21;19;
60245;PMS5003;46107;53.356;-1.524;2023-04-15T10:30:47;19;16;
60245;PMS5003;46107;53.356;-1.524;2023-04-15T10:33:16;23;21;
60245;PMS5003;46107;53.356;-1.524;2023-04-15T10:35:46;19;18;
60245;PMS5003;46107;53.356;-1.524;2023-04-15T10:38:33;18;16;
60245;PMS5003;46107;53.356;-1.524;2023-04-15T10:41:18;15;15;
60245;PMS5003;46107;53.356;-1.524;2023-04-15T10:43:48;13;13;
60245;PMS5003;46107;53.356;-1.524;2023-04-15T10:46:18;16;14;
60245;PMS5003;46107;53.356;-1.524;2023-04-15T10:48:48;12;11;
60245;PMS5003;46107;53.356;-1.524;2023-04-15T10:51:16;13;13;
60245;PMS5003;46107;53.356;-1.524;2023-04-15T10:53:56;19;15;
60245;PMS5003;46107;53.356;-1.524;2023-04-15T10:56:24;15;14;
60245;PMS5003;46107;53.356;-1.524;2023-04-15T10:58:51;15;13;
60245;PMS5003;46107;53.356;-1.524;2023-04-15T11:01:19;16;16;
60245;PMS5003;46107;53.356;-1.524;2023-04-15T11:03:47;18;17;
60245;PMS5003;46107;53.356;-1.524;2023-04-15T11:06:15;18;16;
60245;PMS5003;46107;53.356;-1.524;2023-04-15T11:08:59;20;19;
60245;PMS5003;46107;53.356;-1.524;2023-04-15T11:12:03;27;22;
60245;PMS5003;46107;53.356;-1.524;2023-04-15T11:14:31;22;22;
60245;PMS5003;46107;53.356;-1.524;2023-04-15T11:16:59;19;16;
60245;PMS5003;46107;53.356;-1.524;2023-04-15T11:19:34;17;16;
60245;PMS5003;46107;53.356;-1.524;2023-04-15T11:22:05;18;18;
60245;PMS5003;46107;53.356;-1.524;2023-04-15T11:24:33;19;17;
60245;PMS5003;46107;53.356;-1.524;2023-04-15T11:27:01;17;17;
60245;PMS5003;46107;53.356;-1.524;2023-04-15T11:29:29;23;21;
60245;PMS5003;46107;53.356;-1.524;2023-04-15T11:32:05;21;20;
60245;PMS5003;46107;53.356;-1.524;2023-04-15T11:34:34;17;14;
60245;PMS5003;46107;53.356;-1.524;2023-04-15T11:37:03;22;19;
60245;PMS5003;46107;53.356;-1.524;2023-04-15T11:39:31;17;16;
60245;PMS5003;46107;53.356;-1.524;2023-04-15T11:41:58;12;12;
60245;PMS5003;46107;53.356;-1.524;2023-04-15T11:44:26;18;16;
60245;PMS5003;46107;53.356;-1.524;2023-04-15T11:46:54;19;18;
60245;PMS5003;46107;53.356;-1.524;2023-04-15T11:49:29;20;20;
60245;PMS5003;46107;53.356;-1.524;2023-04-15T11:51:56;21;21;
60245;PMS5003;46107;53.356;-1.524;2023-04-15T11:54:24;17;16;
60245;PMS5003;46107;53.356;-1.524;2023-04-15T11:56:52;19;18;
60245;PMS5003;46107;53.356;-1.524;2023-04-15T11:59:20;17;15;
60245;PMS5003;46107;53.356;-1.524;2023-04-15T12:01:47;17;15;
60245;PMS5003;46107;53.356;-1.524;2023-04-15T12:04:14;21;20;
60245;PMS5003;46107;53.356;-1.524;2023-04-15T12:06:43;17;15;
60245;PMS5003;46107;53.356;-1.524;2023-04-15T12:09:11;17;15;
60245;PMS5003;46107;53.356;-1.524;2023-04-15T12:11:42;15;15;
60245;PMS5003;46107;53.356;-1.524;2023-04-15T12:14:11;17;15;
60245;PMS5003;46107;53.356;-1.524;2023-04-15T12:16:46;18;17;
60245;PMS5003;46107;53.356;-1.524;2023-04-15T12:19:14;19;16;
60245;PMS5003;46107;53.356;-1.524;2023-04-15T12:21:44;16;16;
60245;PMS5003;46107;53.356;-1.524;2023-04-15T12:24:13;19;19;
60245;PMS5003;46107;53.356;-1.524;2023-04-15T12:26:46;18;18;
60245;PMS5003;46107;53.356;-1.524;2023-04-15T12:29:15;16;16;
60245;PMS5003;46107;53.356;-1.524;2023-04-15T12:31:48;17;17;
60245;PMS5003;46107;53.356;-1.524;2023-04-15T12:34:17;18;17;
60245;PMS5003;46107;53.356;-1.524;2023-04-15T12:36:51;16;15;
60245;PMS5003;46107;53.356;-1.524;2023-04-15T12:39:20;22;19;
60245;PMS5003;46107;53.356;-1.524;2023-04-15T12:41:48;20;18;
60245;PMS5003;46107;53.356;-1.524;2023-04-15T12:44:16;19;18;
60245;PMS5003;46107;53.356;-1.524;2023-04-15T12:46:44;17;16;
60245;PMS5003;46107;53.356;-1.524;2023-04-15T12:49:11;17;17;
60245;PMS5003;46107;53.356;-1.524;2023-04-15T12:51:39;16;16;
60245;PMS5003;46107;53.356;-1.524;2023-04-15T12:54:06;20;19;
60245;PMS5003;46107;53.356;-1.524;2023-04-15T12:56:33;18;17;
60245;PMS5003;46107;53.356;-1.524;2023-04-15T12:59:01;19;19;
60245;PMS5003;46107;53.356;-1.524;2023-04-15T13:01:28;16;16;
60245;PMS5003;46107;53.356;-1.524;2023-04-15T13:03:55;22;20;
60245;PMS5003;46107;53.356;-1.524;2023-04-15T13:06:23;20;18;
60245;PMS5003;46107;53.356;-1.524;2023-04-15T13:08:51;19;19;
60245;PMS5003;46107;53.356;-1.524;2023-04-15T13:11:19;19;19;
60245;PMS5003;46107;53.356;-1.524;2023-04-15T13:13:47;19;17;
60245;PMS5003;46107;53.356;-1.524;2023-04-15T13:16:15;22;19;
60245;PMS5003;46107;53.356;-1.524;2023-04-15T13:18:42;21;17;
60245;PMS5003;46107;53.356;-1.524;2023-04-15T13:21:09;18;17;
60245;PMS5003;46107;53.356;-1.524;2023-04-15T13:23:39;20;19;
60245;PMS5003;46107;53.356;-1.524;2023-04-15T13:26:07;17;15;
60245;PMS5003;46107;53.356;-1.524;2023-04-15T13:28:35;21;18;
60245;PMS5003;46107;53.356;-1.524;2023-04-15T13:31:03;21;19;
60245;PMS5003;46107;53.356;-1.524;2023-04-15T13:33:31;20;19;
60245;PMS5003;46107;53.356;-1.524;2023-04-15T13:35:58;19;18;
60245;PMS5003;46107;53.356;-1.524;2023-04-15T13:38:26;19;17;
60245;PMS5003;46107;53.356;-1.524;2023-04-15T13:40:54;17;15;
60245;PMS5003;46107;53.356;-1.524;2023-04-15T13:43:22;20;19;
60245;PMS5003;46107;53.356;-1.524;2023-04-15T13:45:50;17;14;
60245;PMS5003;46107;53.356;-1.524;2023-04-15T13:48:18;21;19;
60245;PMS5003;46107;53.356;-1.524;2023-04-15T13:50:46;21;17;
60245;PMS5003;46107;53.356;-1.524;2023-04-15T13:53:14;24;20;
60245;PMS5003;46107;53.356;-1.524;2023-04-15T13:55:41;19;19;
60245;PMS5003;46107;53.356;-1.524;2023-04-15T13:58:09;20;18;
60245;PMS5003;46107;53.356;-1.524;2023-04-15T14:00:37;19;19;
60245;PMS5003;46107;53.356;-1.524;2023-04-15T14:03:04;22;20;
60245;PMS5003;46107;53.356;-1.524;2023-04-15T14:05:31;23;20;
60245;PMS5003;46107;53.356;-1.524;2023-04-15T14:07:58;19;18;
60245;PMS5003;46107;53.356;-1.524;2023-04-15T14:10:26;16;16;
60245;PMS5003;46107;53.356;-1.524;2023-04-15T14:12:53;16;16;
60245;PMS5003;46107;53.356;-1.524;2023-04-15T14:15:21;24;21;
60245;PMS5003;46107;53.356;-1.524;2023-04-15T14:17:48;22;19;
60245;PMS5003;46107;53.356;-1.524;2023-04-15T14:20:16;18;17;
60245;PMS5003;46107;53.356;-1.524;2023-04-15T14:22:44;18;17;
60245;PMS5003;46107;53.356;-1.524;2023-04-15T14:25:12;17;17;
60245;PMS5003;46107;53.356;-1.524;2023-04-15T14:27:39;19;17;
60245;PMS5003;46107;53.356;-1.524;2023-04-15T14:30:09;18;15;
60245;PMS5003;46107;53.356;-1.524;2023-04-15T14:32:37;20;18;
60245;PMS5003;46107;53.356;-1.524;2023-04-15T14:35:04;21;19;
60245;PMS5003;46107;53.356;-1.524;2023-04-15T14:37:32;15;15;
60245;PMS5003;46107;53.356;-1.524;2023-04-15T14:39:59;18;17;
60245;PMS5003;46107;53.356;-1.524;2023-04-15T14:42:27;19;17;
60245;PMS5003;46107;53.356;-1.524;2023-04-15T14:44:55;15;14;
60245;PMS5003;46107;53.356;-1.524;2023-04-15T14:47:23;20;18;
60245;PMS5003;46107;53.356;-1.524;2023-04-15T14:49:51;19;19;
60245;PMS5003;46107;53.356;-1.524;2023-04-15T14:52:19;15;15;
60245;PMS5003;46107;53.356;-1.524;2023-04-15T14:54:47;18;16;
60245;PMS5003;46107;53.356;-1.524;2023-04-15T14:57:14;15;15;
60245;PMS5003;46107;53.356;-1.524;2023-04-15T14:59:42;17;16;
60245;PMS5003;46107;53.356;-1.524;2023-04-15T15:02:09;16;15;
60245;PMS5003;46107;53.356;-1.524;2023-04-15T15:04:37;17;16;
60245;PMS5003;46107;53.356;-1.524;2023-04-15T15:07:05;20;17;
60245;PMS5003;46107;53.356;-1.524;2023-04-15T15:09:32;18;17;
60245;PMS5003;46107;53.356;-1.524;2023-04-15T15:12:00;19;19;
60245;PMS5003;46107;53.356;-1.524;2023-04-15T15:14:28;19;17;
60245;PMS5003;46107;53.356;-1.524;2023-04-15T15:16:56;21;19;
60245;PMS5003;46107;53.356;-1.524;2023-04-15T15:19:24;17;15;
60245;PMS5003;46107;53.356;-1.524;2023-04-15T15:21:52;17;15;
60245;PMS5003;46107;53.356;-1.524;2023-04-15T15:24:19;19;17;
60245;PMS5003;46107;53.356;-1.524;2023-04-15T15:26:47;16;16;
60245;PMS5003;46107;53.356;-1.524;2023-04-15T15:29:15;19;19;
60245;PMS5003;46107;53.356;-1.524;2023-04-15T15:31:42;16;16;
60245;PMS5003;46107;53.356;-1.524;2023-04-15T15:34:11;15;15;
60245;PMS5003;46107;53.356;-1.524;2023-04-15T15:36:39;19;18;
60245;PMS5003;46107;53.356;-1.524;2023-04-15T15:39:09;15;15;
60245;PMS5003;46107;53.356;-1.524;2023-04-15T15:41:36;14;14;
60245;PMS5003;46107;53.356;-1.524;2023-04-15T15:44:04;18;18;
60245;PMS5003;46107;53.356;-1.524;2023-04-15T15:46:31;13;13;
60245;PMS5003;46107;53.356;-1.524;2023-04-15T15:48:59;14;14;
60245;PMS5003;46107;53.356;-1.524;2023-04-15T15:51:28;19;16;
60245;PMS5003;46107;53.356;-1.524;2023-04-15T15:53:56;15;15;
60245;PMS5003;46107;53.356;-1.524;2023-04-15T15:56:24;15;15;
60245;PMS5003;46107;53.356;-1.524;2023-04-15T15:58:51;16;16;
60245;PMS5003;46107;53.356;-1.524;2023-04-15T16:01:19;15;15;
60245;PMS5003;46107;53.356;-1.524;2023-04-15T16:03:47;17;15;
60245;PMS5003;46107;53.356;-1.524;2023-04-15T16:06:15;18;16;
60245;PMS5003;46107;53.356;-1.524;2023-04-15T16:08:43;15;15;